Willeys, Illinois
Current Conditions -  °F | °C
As of 9:35 AM on Saturday 22 Nov 2014 (Local Time) from KTAZ Reporting Station
Overcast Overcast  
Wind Chill: 50°   Ceiling: 6000
Heat Index: 50°   Visibility: 10mi
Dew Point: 43°   Wind: 13mph
Humidity: 76%   Direction: 190°S
Pressure: 30.07"   Gusts: NA
Location:  39.5521°N, 89.3216°W
Report Text: KTAZ 221535Z AUTO 19011KT 10SM BKN060 BKN070 OVC080 10/06 A3007 RMK AO2
Loading
Personal Weather Stations






























Interactive Weather Map New forecast layout! Learn more

10-Day Weather Forecast

Advertisements
Track Severe Weather on mobile